sensor_id;sensor_type;location;lat;lon;timestamp;temperature;humidity
21121;DHT22;12519;43.318;21.898;2023-09-18T00:00:13;22.0;96.0
21121;DHT22;12519;43.318;21.898;2023-09-18T00:04:50;22.0;96.0
21121;DHT22;12519;43.318;21.898;2023-09-18T00:09:26;22.0;96.0
21121;DHT22;12519;43.318;21.898;2023-09-18T00:14:02;21.9;96.0
21121;DHT22;12519;43.318;21.898;2023-09-18T00:18:38;21.9;96.0
21121;DHT22;12519;43.318;21.898;2023-09-18T00:23:15;21.8;96.0
21121;DHT22;12519;43.318;21.898;2023-09-18T00:27:51;21.8;96.0
21121;DHT22;12519;43.318;21.898;2023-09-18T00:32:28;21.8;96.0
21121;DHT22;12519;43.318;21.898;2023-09-18T00:37:04;21.8;96.0
21121;DHT22;12519;43.318;21.898;2023-09-18T00:41:41;21.8;96.0
21121;DHT22;12519;43.318;21.898;2023-09-18T00:46:18;21.8;96.0
21121;DHT22;12519;43.318;21.898;2023-09-18T00:50:54;21.8;96.0
21121;DHT22;12519;43.318;21.898;2023-09-18T00:55:36;21.7;96.0
21121;DHT22;12519;43.318;21.898;2023-09-18T01:00:16;21.7;96.0
21121;DHT22;12519;43.318;21.898;2023-09-18T01:04:53;21.6;96.0
21121;DHT22;12519;43.318;21.898;2023-09-18T01:09:34;21.6;96.0
21121;DHT22;12519;43.318;21.898;2023-09-18T01:14:29;21.6;96.0
21121;DHT22;12519;43.318;21.898;2023-09-18T01:19:41;21.6;96.0
21121;DHT22;12519;43.318;21.898;2023-09-18T01:24:21;21.5;97.0
21121;DHT22;12519;43.318;21.898;2023-09-18T01:28:57;21.5;97.0
21121;DHT22;12519;43.318;21.898;2023-09-18T01:33:38;21.4;97.0
21121;DHT22;12519;43.318;21.898;2023-09-18T01:38:18;21.4;97.0
21121;DHT22;12519;43.318;21.898;2023-09-18T01:42:55;21.3;97.0
21121;DHT22;12519;43.318;21.898;2023-09-18T01:47:33;21.3;97.0
21121;DHT22;12519;43.318;21.898;2023-09-18T01:52:10;21.2;97.0
21121;DHT22;12519;43.318;21.898;2023-09-18T01:56:47;21.2;97.0
21121;DHT22;12519;43.318;21.898;2023-09-18T02:01:25;21.2;97.0
21121;DHT22;12519;43.318;21.898;2023-09-18T02:06:01;21.2;97.0
21121;DHT22;12519;43.318;21.898;2023-09-18T02:10:38;21.2;97.0
21121;DHT22;12519;43.318;21.898;2023-09-18T02:15:15;21.1;97.0
21121;DHT22;12519;43.318;21.898;2023-09-18T02:19:52;21.1;97.0
21121;DHT22;12519;43.318;21.898;2023-09-18T02:24:28;21.0;97.0
21121;DHT22;12519;43.318;21.898;2023-09-18T02:29:09;21.0;97.0
21121;DHT22;12519;43.318;21.898;2023-09-18T02:33:46;20.9;97.0
21121;DHT22;12519;43.318;21.898;2023-09-18T02:38:23;20.9;97.0
21121;DHT22;12519;43.318;21.898;2023-09-18T02:42:59;20.9;97.0
21121;DHT22;12519;43.318;21.898;2023-09-18T02:47:35;20.9;97.0
21121;DHT22;12519;43.318;21.898;2023-09-18T02:52:12;20.9;97.0
21121;DHT22;12519;43.318;21.898;2023-09-18T02:56:48;20.9;97.0
21121;DHT22;12519;43.318;21.898;2023-09-18T03:01:24;20.8;97.0
21121;DHT22;12519;43.318;21.898;2023-09-18T03:06:03;20.8;97.0
21121;DHT22;12519;43.318;21.898;2023-09-18T03:10:44;20.8;97.0
21121;DHT22;12519;43.318;21.898;2023-09-18T03:15:20;20.8;96.0
21121;DHT22;12519;43.318;21.898;2023-09-18T03:19:57;20.8;96.0
21121;DHT22;12519;43.318;21.898;2023-09-18T03:24:33;21.0;97.0
21121;DHT22;12519;43.318;21.898;2023-09-18T03:29:10;21.0;97.0
21121;DHT22;12519;43.318;21.898;2023-09-18T03:33:46;21.1;97.0
21121;DHT22;12519;43.318;21.898;2023-09-18T03:38:23;21.1;97.0
21121;DHT22;12519;43.318;21.898;2023-09-18T03:43:00;21.2;96.0
21121;DHT22;12519;43.318;21.898;2023-09-18T03:47:39;21.2;96.0
21121;DHT22;12519;43.318;21.898;2023-09-18T03:52:18;21.3;95.0
21121;DHT22;12519;43.318;21.898;2023-09-18T03:56:54;21.3;95.0
21121;DHT22;12519;43.318;21.898;2023-09-18T04:01:31;21.0;95.0
21121;DHT22;12519;43.318;21.898;2023-09-18T04:06:07;21.0;95.0
21121;DHT22;12519;43.318;21.898;2023-09-18T04:10:44;21.0;95.0
21121;DHT22;12519;43.318;21.898;2023-09-18T04:15:22;20.7;96.0
21121;DHT22;12519;43.318;21.898;2023-09-18T04:19:59;20.7;96.0
21121;DHT22;12519;43.318;21.898;2023-09-18T04:24:35;20.6;96.0
21121;DHT22;12519;43.318;21.898;2023-09-18T04:29:12;20.6;96.0
21121;DHT22;12519;43.318;21.898;2023-09-18T04:33:49;20.5;97.0
21121;DHT22;12519;43.318;21.898;2023-09-18T04:38:26;20.5;97.0
21121;DHT22;12519;43.318;21.898;2023-09-18T04:43:03;20.5;97.0
21121;DHT22;12519;43.318;21.898;2023-09-18T04:47:40;20.5;97.0
21121;DHT22;12519;43.318;21.898;2023-09-18T04:52:16;20.5;97.0
21121;DHT22;12519;43.318;21.898;2023-09-18T04:56:53;20.5;97.0
21121;DHT22;12519;43.318;21.898;2023-09-18T05:01:29;20.5;97.0
21121;DHT22;12519;43.318;21.898;2023-09-18T05:06:06;20.6;97.0
21121;DHT22;12519;43.318;21.898;2023-09-18T05:10:42;20.6;97.0
21121;DHT22;12519;43.318;21.898;2023-09-18T05:15:19;20.8;98.0
21121;DHT22;12519;43.318;21.898;2023-09-18T05:19:55;20.8;98.0
21121;DHT22;12519;43.318;21.898;2023-09-18T05:24:31;20.6;97.0
21121;DHT22;12519;43.318;21.898;2023-09-18T05:29:07;20.6;97.0
21121;DHT22;12519;43.318;21.898;2023-09-18T05:33:43;20.5;97.0
21121;DHT22;12519;43.318;21.898;2023-09-18T05:38:19;20.5;97.0
21121;DHT22;12519;43.318;21.898;2023-09-18T05:42:57;20.5;98.0
21121;DHT22;12519;43.318;21.898;2023-09-18T05:47:35;20.5;98.0
21121;DHT22;12519;43.318;21.898;2023-09-18T05:52:11;20.5;98.0
21121;DHT22;12519;43.318;21.898;2023-09-18T05:56:48;20.5;98.0
21121;DHT22;12519;43.318;21.898;2023-09-18T06:01:24;20.5;98.0
21121;DHT22;12519;43.318;21.898;2023-09-18T06:06:01;20.4;99.0
21121;DHT22;12519;43.318;21.898;2023-09-18T06:10:37;20.4;99.0
21121;DHT22;12519;43.318;21.898;2023-09-18T06:15:14;20.4;99.0
21121;DHT22;12519;43.318;21.898;2023-09-18T06:19:50;20.4;99.0
21121;DHT22;12519;43.318;21.898;2023-09-18T06:24:27;20.4;99.0
21121;DHT22;12519;43.318;21.898;2023-09-18T06:29:04;20.4;99.0
21121;DHT22;12519;43.318;21.898;2023-09-18T06:33:41;20.5;100.0
21121;DHT22;12519;43.318;21.898;2023-09-18T06:38:17;20.5;100.0
21121;DHT22;12519;43.318;21.898;2023-09-18T06:42:59;20.6;99.0
21121;DHT22;12519;43.318;21.898;2023-09-18T06:47:35;20.6;99.0
21121;DHT22;12519;43.318;21.898;2023-09-18T06:52:12;20.8;99.0
21121;DHT22;12519;43.318;21.898;2023-09-18T06:56:49;20.8;99.0
21121;DHT22;12519;43.318;21.898;2023-09-18T07:01:26;20.8;99.0
21121;DHT22;12519;43.318;21.898;2023-09-18T07:06:03;21.5;98.0
21121;DHT22;12519;43.318;21.898;2023-09-18T07:10:40;21.5;98.0
21121;DHT22;12519;43.318;21.898;2023-09-18T07:15:18;22.1;97.0
21121;DHT22;12519;43.318;21.898;2023-09-18T07:19:55;22.1;97.0
21121;DHT22;12519;43.318;21.898;2023-09-18T07:24:31;22.6;96.0
21121;DHT22;12519;43.318;21.898;2023-09-18T07:29:08;22.6;96.0
21121;DHT22;12519;43.318;21.898;2023-09-18T07:33:45;23.1;94.0
21121;DHT22;12519;43.318;21.898;2023-09-18T07:38:21;23.1;94.0
21121;DHT22;12519;43.318;21.898;2023-09-18T07:42:58;23.8;92.0
21121;DHT22;12519;43.318;21.898;2023-09-18T07:47:35;23.8;92.0
21121;DHT22;12519;43.318;21.898;2023-09-18T07:52:12;24.6;90.0
21121;DHT22;12519;43.318;21.898;2023-09-18T07:56:49;24.6;90.0
21121;DHT22;12519;43.318;21.898;2023-09-18T08:01:26;24.6;90.0
21121;DHT22;12519;43.318;21.898;2023-09-18T08:06:03;24.6;90.0
21121;DHT22;12519;43.318;21.898;2023-09-18T08:10:39;24.6;90.0
21121;DHT22;12519;43.318;21.898;2023-09-18T08:15:16;24.5;90.0
21121;DHT22;12519;43.318;21.898;2023-09-18T08:19:53;24.5;90.0
21121;DHT22;12519;43.318;21.898;2023-09-18T08:24:29;24.7;89.0
21121;DHT22;12519;43.318;21.898;2023-09-18T08:29:06;24.7;89.0
21121;DHT22;12519;43.318;21.898;2023-09-18T08:33:43;24.9;89.0
21121;DHT22;12519;43.318;21.898;2023-09-18T08:38:19;24.9;89.0
21121;DHT22;12519;43.318;21.898;2023-09-18T08:42:58;25.2;88.0
21121;DHT22;12519;43.318;21.898;2023-09-18T08:47:39;25.2;88.0
21121;DHT22;12519;43.318;21.898;2023-09-18T08:52:18;25.4;87.0
21121;DHT22;12519;43.318;21.898;2023-09-18T08:56:57;25.4;87.0
21121;DHT22;12519;43.318;21.898;2023-09-18T09:01:34;25.4;87.0
21121;DHT22;12519;43.318;21.898;2023-09-18T09:06:13;25.5;87.0
21121;DHT22;12519;43.318;21.898;2023-09-18T09:10:50;25.5;87.0
21121;DHT22;12519;43.318;21.898;2023-09-18T09:15:43;25.7;86.0
21121;DHT22;12519;43.318;21.898;2023-09-18T09:20:23;25.7;86.0
21121;DHT22;12519;43.318;21.898;2023-09-18T09:24:59;25.8;85.0
21121;DHT22;12519;43.318;21.898;2023-09-18T09:29:37;25.8;85.0
21121;DHT22;12519;43.318;21.898;2023-09-18T09:34:27;25.9;85.0
21121;DHT22;12519;43.318;21.898;2023-09-18T09:39:04;25.9;85.0
21121;DHT22;12519;43.318;21.898;2023-09-18T09:43:44;26.2;83.0
21121;DHT22;12519;43.318;21.898;2023-09-18T09:48:21;26.2;83.0
21121;DHT22;12519;43.318;21.898;2023-09-18T09:53:00;26.4;82.0
21121;DHT22;12519;43.318;21.898;2023-09-18T09:57:50;26.4;82.0
21121;DHT22;12519;43.318;21.898;2023-09-18T10:02:36;26.7;80.0
21121;DHT22;12519;43.318;21.898;2023-09-18T10:07:17;26.7;80.0
21121;DHT22;12519;43.318;21.898;2023-09-18T10:11:59;26.7;80.0
21121;DHT22;12519;43.318;21.898;2023-09-18T10:17:04;27.0;78.0
21121;DHT22;12519;43.318;21.898;2023-09-18T10:22:15;27.0;78.0
21121;DHT22;12519;43.318;21.898;2023-09-18T10:27:13;27.1;78.0
21121;DHT22;12519;43.318;21.898;2023-09-18T10:31:54;27.1;78.0
21121;DHT22;12519;43.318;21.898;2023-09-18T10:36:34;27.2;78.0
21121;DHT22;12519;43.318;21.898;2023-09-18T10:41:14;27.2;78.0
21121;DHT22;12519;43.318;21.898;2023-09-18T10:45:53;27.4;78.0
21121;DHT22;12519;43.318;21.898;2023-09-18T10:50:31;27.4;78.0
21121;DHT22;12519;43.318;21.898;2023-09-18T10:55:12;27.5;78.0
21121;DHT22;12519;43.318;21.898;2023-09-18T10:59:54;27.5;78.0
21121;DHT22;12519;43.318;21.898;2023-09-18T11:04:32;27.6;77.0
21121;DHT22;12519;43.318;21.898;2023-09-18T11:09:09;27.6;77.0
21121;DHT22;12519;43.318;21.898;2023-09-18T11:13:56;27.8;77.0
21121;DHT22;12519;43.318;21.898;2023-09-18T11:18:33;27.8;77.0
21121;DHT22;12519;43.318;21.898;2023-09-18T11:23:17;27.8;77.0
21121;DHT22;12519;43.318;21.898;2023-09-18T11:27:55;27.8;77.0
21121;DHT22;12519;43.318;21.898;2023-09-18T11:32:40;27.8;76.0
21121;DHT22;12519;43.318;21.898;2023-09-18T11:37:22;27.8;76.0
21121;DHT22;12519;43.318;21.898;2023-09-18T11:42:10;27.8;76.0
21121;DHT22;12519;43.318;21.898;2023-09-18T11:46:54;28.0;76.0
21121;DHT22;12519;43.318;21.898;2023-09-18T11:51:32;28.0;76.0
21121;DHT22;12519;43.318;21.898;2023-09-18T11:56:11;28.3;76.0
21121;DHT22;12519;43.318;21.898;2023-09-18T12:00:52;28.3;76.0
21121;DHT22;12519;43.318;21.898;2023-09-18T12:05:30;28.4;75.0
21121;DHT22;12519;43.318;21.898;2023-09-18T12:10:11;28.4;75.0
21121;DHT22;12519;43.318;21.898;2023-09-18T12:14:52;28.6;74.0
21121;DHT22;12519;43.318;21.898;2023-09-18T12:19:30;28.6;74.0
21121;DHT22;12519;43.318;21.898;2023-09-18T12:24:13;28.6;74.0
21121;DHT22;12519;43.318;21.898;2023-09-18T12:28:59;28.6;74.0
21121;DHT22;12519;43.318;21.898;2023-09-18T12:33:40;28.7;74.0
21121;DHT22;12519;43.318;21.898;2023-09-18T12:38:20;28.7;74.0
21121;DHT22;12519;43.318;21.898;2023-09-18T12:42:59;28.8;74.0
21121;DHT22;12519;43.318;21.898;2023-09-18T12:47:40;28.8;74.0
21121;DHT22;12519;43.318;21.898;2023-09-18T12:52:22;28.8;74.0
21121;DHT22;12519;43.318;21.898;2023-09-18T12:56:59;28.8;74.0
21121;DHT22;12519;43.318;21.898;2023-09-18T13:01:36;28.8;74.0
21121;DHT22;12519;43.318;21.898;2023-09-18T13:06:19;28.9;74.0
21121;DHT22;12519;43.318;21.898;2023-09-18T13:10:56;28.9;74.0
21121;DHT22;12519;43.318;21.898;2023-09-18T13:15:33;29.0;74.0
21121;DHT22;12519;43.318;21.898;2023-09-18T13:20:17;29.0;74.0
21121;DHT22;12519;43.318;21.898;2023-09-18T13:25:01;29.0;73.0
21121;DHT22;12519;43.318;21.898;2023-09-18T13:29:37;29.0;73.0
21121;DHT22;12519;43.318;21.898;2023-09-18T13:34:13;28.9;73.0
21121;DHT22;12519;43.318;21.898;2023-09-18T13:38:50;28.9;73.0
21121;DHT22;12519;43.318;21.898;2023-09-18T13:43:26;28.8;73.0
21121;DHT22;12519;43.318;21.898;2023-09-18T13:48:04;28.8;73.0
21121;DHT22;12519;43.318;21.898;2023-09-18T13:52:42;28.8;73.0
21121;DHT22;12519;43.318;21.898;2023-09-18T13:57:19;28.8;73.0
21121;DHT22;12519;43.318;21.898;2023-09-18T14:01:57;28.8;73.0
21121;DHT22;12519;43.318;21.898;2023-09-18T14:06:33;28.8;73.0
21121;DHT22;12519;43.318;21.898;2023-09-18T14:11:10;28.8;73.0
21121;DHT22;12519;43.318;21.898;2023-09-18T14:15:46;28.7;73.0
21121;DHT22;12519;43.318;21.898;2023-09-18T14:20:23;28.7;73.0
21121;DHT22;12519;43.318;21.898;2023-09-18T14:24:59;28.6;73.0
21121;DHT22;12519;43.318;21.898;2023-09-18T14:29:36;28.6;73.0
21121;DHT22;12519;43.318;21.898;2023-09-18T14:34:12;28.6;73.0
21121;DHT22;12519;43.318;21.898;2023-09-18T14:38:49;28.6;73.0
21121;DHT22;12519;43.318;21.898;2023-09-18T14:43:26;28.6;73.0
21121;DHT22;12519;43.318;21.898;2023-09-18T14:48:04;28.6;73.0
21121;DHT22;12519;43.318;21.898;2023-09-18T14:52:41;28.6;73.0
21121;DHT22;12519;43.318;21.898;2023-09-18T14:57:18;28.5;74.0
21121;DHT22;12519;43.318;21.898;2023-09-18T15:01:55;28.5;74.0
21121;DHT22;12519;43.318;21.898;2023-09-18T15:06:31;28.4;74.0
21121;DHT22;12519;43.318;21.898;2023-09-18T15:11:09;28.4;74.0
21121;DHT22;12519;43.318;21.898;2023-09-18T15:15:47;28.3;74.0
21121;DHT22;12519;43.318;21.898;2023-09-18T15:20:23;28.3;74.0
21121;DHT22;12519;43.318;21.898;2023-09-18T15:25:00;28.1;74.0
21121;DHT22;12519;43.318;21.898;2023-09-18T15:29:37;28.1;74.0
21121;DHT22;12519;43.318;21.898;2023-09-18T15:34:14;27.9;74.0
21121;DHT22;12519;43.318;21.898;2023-09-18T15:38:51;27.9;74.0
21121;DHT22;12519;43.318;21.898;2023-09-18T15:43:27;27.8;75.0
21121;DHT22;12519;43.318;21.898;2023-09-18T15:48:06;27.8;75.0
21121;DHT22;12519;43.318;21.898;2023-09-18T15:52:45;27.8;75.0
21121;DHT22;12519;43.318;21.898;2023-09-18T15:57:22;27.6;76.0
21121;DHT22;12519;43.318;21.898;2023-09-18T16:01:58;27.6;76.0
21121;DHT22;12519;43.318;21.898;2023-09-18T16:06:34;27.3;76.0
21121;DHT22;12519;43.318;21.898;2023-09-18T16:11:12;27.3;76.0
21121;DHT22;12519;43.318;21.898;2023-09-18T16:15:48;27.0;77.0
21121;DHT22;12519;43.318;21.898;2023-09-18T16:20:24;27.0;77.0
21121;DHT22;12519;43.318;21.898;2023-09-18T16:25:01;26.8;77.0
21121;DHT22;12519;43.318;21.898;2023-09-18T16:29:38;26.8;77.0
21121;DHT22;12519;43.318;21.898;2023-09-18T16:34:15;26.5;78.0
21121;DHT22;12519;43.318;21.898;2023-09-18T16:38:51;26.5;78.0
21121;DHT22;12519;43.318;21.898;2023-09-18T16:43:27;26.3;78.0
21121;DHT22;12519;43.318;21.898;2023-09-18T16:48:06;26.3;78.0
21121;DHT22;12519;43.318;21.898;2023-09-18T16:52:43;26.3;78.0
21121;DHT22;12519;43.318;21.898;2023-09-18T16:57:19;26.1;78.0
21121;DHT22;12519;43.318;21.898;2023-09-18T17:01:56;26.1;78.0
21121;DHT22;12519;43.318;21.898;2023-09-18T17:06:33;26.0;79.0
21121;DHT22;12519;43.318;21.898;2023-09-18T17:11:10;26.0;79.0
21121;DHT22;12519;43.318;21.898;2023-09-18T17:15:47;25.9;80.0
21121;DHT22;12519;43.318;21.898;2023-09-18T17:20:24;25.9;80.0
21121;DHT22;12519;43.318;21.898;2023-09-18T17:25:07;25.8;80.0
21121;DHT22;12519;43.318;21.898;2023-09-18T17:29:44;25.8;80.0
21121;DHT22;12519;43.318;21.898;2023-09-18T17:34:20;25.8;80.0
21121;DHT22;12519;43.318;21.898;2023-09-18T17:38:57;25.8;80.0
21121;DHT22;12519;43.318;21.898;2023-09-18T17:43:33;25.6;80.0
21121;DHT22;12519;43.318;21.898;2023-09-18T17:48:10;25.6;80.0
21121;DHT22;12519;43.318;21.898;2023-09-18T17:52:47;25.6;80.0
21121;DHT22;12519;43.318;21.898;2023-09-18T17:57:24;25.3;80.0
21121;DHT22;12519;43.318;21.898;2023-09-18T18:02:01;25.3;80.0
21121;DHT22;12519;43.318;21.898;2023-09-18T18:06:37;25.2;80.0
21121;DHT22;12519;43.318;21.898;2023-09-18T18:11:14;25.2;80.0
21121;DHT22;12519;43.318;21.898;2023-09-18T18:15:50;25.2;80.0
21121;DHT22;12519;43.318;21.898;2023-09-18T18:20:27;25.2;80.0
21121;DHT22;12519;43.318;21.898;2023-09-18T18:25:06;25.1;80.0
21121;DHT22;12519;43.318;21.898;2023-09-18T18:29:44;25.1;80.0
21121;DHT22;12519;43.318;21.898;2023-09-18T18:34:20;25.0;81.0
21121;DHT22;12519;43.318;21.898;2023-09-18T18:38:58;25.0;81.0
21121;DHT22;12519;43.318;21.898;2023-09-18T18:43:35;25.0;81.0
21121;DHT22;12519;43.318;21.898;2023-09-18T18:48:12;25.0;81.0
21121;DHT22;12519;43.318;21.898;2023-09-18T18:52:48;25.0;81.0
21121;DHT22;12519;43.318;21.898;2023-09-18T18:57:24;24.9;81.0
21121;DHT22;12519;43.318;21.898;2023-09-18T19:02:00;24.9;81.0
21121;DHT22;12519;43.318;21.898;2023-09-18T19:06:36;24.8;82.0
21121;DHT22;12519;43.318;21.898;2023-09-18T19:11:13;24.8;82.0
21121;DHT22;12519;43.318;21.898;2023-09-18T19:15:51;24.6;82.0
21121;DHT22;12519;43.318;21.898;2023-09-18T19:20:32;24.6;82.0
21121;DHT22;12519;43.318;21.898;2023-09-18T19:25:09;24.5;82.0
21121;DHT22;12519;43.318;21.898;2023-09-18T19:29:45;24.5;82.0
21121;DHT22;12519;43.318;21.898;2023-09-18T19:34:24;24.4;83.0
21121;DHT22;12519;43.318;21.898;2023-09-18T19:39:01;24.4;83.0
21121;DHT22;12519;43.318;21.898;2023-09-18T19:43:38;24.3;83.0
21121;DHT22;12519;43.318;21.898;2023-09-18T19:48:15;24.3;83.0
21121;DHT22;12519;43.318;21.898;2023-09-18T19:52:52;24.3;83.0
21121;DHT22;12519;43.318;21.898;2023-09-18T19:57:28;24.2;83.0
21121;DHT22;12519;43.318;21.898;2023-09-18T20:02:07;24.2;83.0
21121;DHT22;12519;43.318;21.898;2023-09-18T20:06:43;24.2;83.0
21121;DHT22;12519;43.318;21.898;2023-09-18T20:11:20;24.2;83.0
21121;DHT22;12519;43.318;21.898;2023-09-18T20:15:56;24.2;83.0
21121;DHT22;12519;43.318;21.898;2023-09-18T20:20:32;24.2;83.0
21121;DHT22;12519;43.318;21.898;2023-09-18T20:25:10;24.2;82.0
21121;DHT22;12519;43.318;21.898;2023-09-18T20:29:47;24.2;82.0
21121;DHT22;12519;43.318;21.898;2023-09-18T20:34:24;24.2;82.0
21121;DHT22;12519;43.318;21.898;2023-09-18T20:39:01;24.2;82.0
21121;DHT22;12519;43.318;21.898;2023-09-18T20:43:38;24.2;82.0
21121;DHT22;12519;43.318;21.898;2023-09-18T20:48:14;24.2;82.0
21121;DHT22;12519;43.318;21.898;2023-09-18T20:52:51;24.2;82.0
21121;DHT22;12519;43.318;21.898;2023-09-18T20:57:27;24.1;82.0
21121;DHT22;12519;43.318;21.898;2023-09-18T21:02:04;24.1;82.0
21121;DHT22;12519;43.318;21.898;2023-09-18T21:06:41;24.0;82.0
21121;DHT22;12519;43.318;21.898;2023-09-18T21:11:17;24.0;82.0
21121;DHT22;12519;43.318;21.898;2023-09-18T21:15:54;23.9;82.0
21121;DHT22;12519;43.318;21.898;2023-09-18T21:20:31;23.9;82.0
21121;DHT22;12519;43.318;21.898;2023-09-18T21:25:09;23.8;82.0
21121;DHT22;12519;43.318;21.898;2023-09-18T21:29:45;23.8;82.0
21121;DHT22;12519;43.318;21.898;2023-09-18T21:34:22;23.7;82.0
21121;DHT22;12519;43.318;21.898;2023-09-18T21:38:58;23.7;82.0
21121;DHT22;12519;43.318;21.898;2023-09-18T21:43:34;23.7;82.0
21121;DHT22;12519;43.318;21.898;2023-09-18T21:48:10;23.6;83.0
21121;DHT22;12519;43.318;21.898;2023-09-18T21:52:47;23.6;83.0
21121;DHT22;12519;43.318;21.898;2023-09-18T21:57:24;23.6;83.0
21121;DHT22;12519;43.318;21.898;2023-09-18T22:02:00;23.6;83.0
21121;DHT22;12519;43.318;21.898;2023-09-18T22:06:38;23.5;83.0
21121;DHT22;12519;43.318;21.898;2023-09-18T22:11:15;23.5;83.0
21121;DHT22;12519;43.318;21.898;2023-09-18T22:15:51;23.4;83.0
21121;DHT22;12519;43.318;21.898;2023-09-18T22:20:28;23.4;83.0
21121;DHT22;12519;43.318;21.898;2023-09-18T22:25:06;23.4;83.0
21121;DHT22;12519;43.318;21.898;2023-09-18T22:29:45;23.4;83.0
21121;DHT22;12519;43.318;21.898;2023-09-18T22:34:22;23.3;83.0
21121;DHT22;12519;43.318;21.898;2023-09-18T22:58:00;23.1;83.0
21121;DHT22;12519;43.318;21.898;2023-09-18T23:02:42;23.1;83.0
21121;DHT22;12519;43.318;21.898;2023-09-18T23:07:19;23.0;83.0
21121;DHT22;12519;43.318;21.898;2023-09-18T23:11:56;23.0;83.0
21121;DHT22;12519;43.318;21.898;2023-09-18T23:16:33;23.0;83.0
21121;DHT22;12519;43.318;21.898;2023-09-18T23:21:09;23.0;83.0
21121;DHT22;12519;43.318;21.898;2023-09-18T23:25:46;23.0;83.0
21121;DHT22;12519;43.318;21.898;2023-09-18T23:30:22;23.0;83.0
21121;DHT22;12519;43.318;21.898;2023-09-18T23:34:58;23.0;83.0
21121;DHT22;12519;43.318;21.898;2023-09-18T23:39:35;23.0;83.0
21121;DHT22;12519;43.318;21.898;2023-09-18T23:44:12;23.0;83.0
21121;DHT22;12519;43.318;21.898;2023-09-18T23:48:48;23.0;83.0
21121;DHT22;12519;43.318;21.898;2023-09-18T23:53:25;23.0;83.0
21121;DHT22;12519;43.318;21.898;2023-09-18T23:58:02;22.9;82.0
